Shirley P. Settoon — WDF9252 — position and weather

sailwx.info

Track history (hours):
 
Tides and Currents Weather Stations Pressure Air Temp Water Temp Dewpoint Dewpoint Depression Visibility Wind Speed Wind Dir Waves Ship Positions

Shirley P. Settoon

Owner: Settoon Towing, LLC, Houma, LA. More information available from US FCC via Universal Licensing System and Coast Guard Vessel Documentation Center.

Last reported at 2015-Apr-30 18:20 UTC. Time now 2015-May-06 09:27 UTC.
Position N 39°09' W 084°45'.

Length 32 m.

Type: Towing. MMSI: 367503240.

Date/timePositionNaut miles runAvg speedWind from/ knotsBaromVisibWave heightAir tempDewpointWater temp
2015-Apr-30 18:20N 39°09' W 084°45'4 5.4
2015-Apr-30 17:33N 39°06' W 084°41'6 5.6
2015-Apr-30 16:33N 39°05' W 084°34'6 6.0
2015-Apr-30 15:33N 39°06' W 084°26'7 7.4
2015-Apr-30 14:33N 39°01' W 084°19'8 8.0
2015-Apr-30 13:33N 38°54' W 084°14'9 4.0
2015-Apr-30 11:27N 38°47' W 084°08'  
2015-Apr-23 11:33N 38°43' W 083°50'5 4.8
2015-Apr-23 10:31N 38°46' W 083°54'6 5.2
2015-Apr-23 09:25N 38°46' W 084°02'5 5.6
2015-Apr-23 08:32N 38°47' W 084°08'3 2.9
2015-Apr-23 07:31N 38°48' W 084°12'1 0.7
2015-Apr-23 06:32N 38°48' W 084°12'1 0.9
2015-Apr-23 05:33N 38°49' W 084°13'5 5.0
2015-Apr-23 04:33N 38°54' W 084°14'5 5.1
2015-Apr-23 03:33N 38°58' W 084°18'4 4.0
2015-Apr-23 02:33N 39°02' W 084°20'5 5.1
2015-Apr-23 01:33N 39°04' W 084°26'4 4.1
2015-Apr-23 00:33N 39°07' W 084°29'4 3.6
2015-Apr-22 23:33N 39°06' W 084°33'4 4.1
2015-Apr-22 22:33N 39°05' W 084°38'  
Track history (hours):
 
Tides and Currents Weather Stations Pressure Air Temp Water Temp Dewpoint Dewpoint Depression Visibility Wind Speed Wind Dir Waves Ship Positions

Shirley P. Settoon

Owner: Settoon Towing, LLC, Houma, LA. More information available from US FCC via Universal Licensing System and Coast Guard Vessel Documentation Center.

Last reported at 2015-Apr-30 18:20 UTC. Time now 2015-May-06 09:27 UTC.
Position N 39°09' W 084°45'.

Length 32 m.

Type: Towing. MMSI: 367503240.

Date/timePositionNaut miles runAvg speedWind from/ knotsBaromVisibWave heightAir tempDewpointWater temp
2015-Apr-30 18:20N 39°09' W 084°45'4 5.4
2015-Apr-30 17:33N 39°06' W 084°41'6 5.6
2015-Apr-30 16:33N 39°05' W 084°34'6 6.0
2015-Apr-30 15:33N 39°06' W 084°26'7 7.4
2015-Apr-30 14:33N 39°01' W 084°19'8 8.0
2015-Apr-30 13:33N 38°54' W 084°14'9 4.0
2015-Apr-30 11:27N 38°47' W 084°08'  
2015-Apr-23 11:33N 38°43' W 083°50'5 4.8
2015-Apr-23 10:31N 38°46' W 083°54'6 5.2
2015-Apr-23 09:25N 38°46' W 084°02'5 5.6
2015-Apr-23 08:32N 38°47' W 084°08'3 2.9
2015-Apr-23 07:31N 38°48' W 084°12'1 0.7
2015-Apr-23 06:32N 38°48' W 084°12'1 0.9
2015-Apr-23 05:33N 38°49' W 084°13'5 5.0
2015-Apr-23 04:33N 38°54' W 084°14'5 5.1
2015-Apr-23 03:33N 38°58' W 084°18'4 4.0
2015-Apr-23 02:33N 39°02' W 084°20'5 5.1
2015-Apr-23 01:33N 39°04' W 084°26'4 4.1
2015-Apr-23 00:33N 39°07' W 084°29'4 3.6
2015-Apr-22 23:33N 39°06' W 084°33'4 4.1
2015-Apr-22 22:33N 39°05' W 084°38'  

Dump ship's entire track history